Alta Loma, California
Current Conditions -  °F | °C
As of 11:53 AM on Friday 31 Oct 2014 (Local Time) from KONT Reporting Station
Haze Haze  
Wind Chill: 66°   Ceiling: 3100
Heat Index: 66°   Visibility: 6mi
Dew Point: 54°   Wind: 0mph
Humidity: 65%   Direction: NA
Pressure: 29.96"   Gusts: NA
Location:  34.12°N, 117.6°W
Report Text: KONT 311853Z 00000KT 6SM HZ FEW022 OVC031 19/12 A2996 RMK AO2 SLP137 T01890122
Loading
Personal Weather Stations






























Interactive Weather Map
Tropical Storm Tracking
New forecast layout! Learn more

10-Day Weather Forecast

Advertisements
Track Severe Weather on mobile